tititudorancea.com
Station Historical Data
Daily Summary for August 20, 2018 Units:  Metric    English   Both
« Previous Day
Next Day »
Daily Weekly Monthly Yearly Custom
  High: Low: Average:
Temperature: -17.8 °C 1.6 °C 6.7 °C
Dew Point: -17.8 °C 0.2 °C 3.7 °C
Humidity: Humidity % 67 % 81 %
Wind Speed: 0 km/h 0 km/h 8.4 km/h
Wind Gust: 0 km/h - -
Wind:- - West
Pressure: 0 hPa 1018.5 hPa -
Precipitation: 0.61 mm    
Historical Graphs
 
 
Ararat weather Find more about Weather in Ararat, AU


 



 


Tabular Data for August 20, 2018
Time Temperature Dew Point Pressure Wind Wind Speed Wind Gust Humidity Rainfall Rate (Hourly)
-17.8 °C -17.8 °C 0 hPa Calm     Humidity % 0 mm
00:04 5.2 °C 2.1 °C 1027.3 hPa North 8 km/h 5.1 km/h 80 % 0 mm
00:09 5.2 °C 2 °C 1027.3 hPa SSW 7.4 km/h 5.1 km/h 80 % 0 mm
00:14 5.1 °C 1.9 °C 1027.3 hPa SSW 8 km/h 1.6 km/h 80 % 0 mm
00:19 4.9 °C 1.7 °C 1027.3 hPa SSW 9.3 km/h 4.5 km/h 80 % 0 mm
00:24 4.5 °C 1.5 °C 1027 hPa North 3.7 km/h 2.6 km/h 81 % 0 mm
00:29 4.2 °C 1.6 °C 1027.3 hPa SSW 6.4 km/h 4.5 km/h 83 % 0 mm
00:34 3.9 °C 1.5 °C 1027.3 hPa SSW 5.6 km/h 0.2 km/h 84 % 0 mm
00:39 3.8 °C 1.3 °C 1027 hPa SSW 5.6 km/h 3.1 km/h 84 % 0 mm
00:44 3.6 °C 1.3 °C 1027 hPa SSW 5.6 km/h 3.4 km/h 85 % 0 mm
00:49 3.5 °C 1.4 °C 1027 hPa Calm     86 % 0 mm
00:54 3.3 °C 1.2 °C 1027 hPa Calm     86 % 0 mm
00:59 3.1 °C 1 °C 1027 hPa Calm     86 % 0 mm
01:04 3.1 °C 1.2 °C 1027 hPa SSW 1.9 km/h 0.2 km/h 87 % 0 mm
01:09 3 °C 1.1 °C 1027 hPa SSW 1.6 km/h 0.8 km/h 87 % 0 mm
01:14 2.9 °C 1.2 °C 1027 hPa Calm     88 % 0 mm
01:19 2.8 °C 1.1 °C 1027 hPa Calm   1.4 km/h 88 % 0 mm
01:24 2.9 °C 1.3 °C 1027 hPa North 4.8 km/h 2.3 km/h 89 % 0 mm
01:29 3 °C 1.4 °C 1027 hPa SSW 3.7 km/h 2.1 km/h 89 % 0 mm
01:34 3.1 °C 1.4 °C 1027 hPa SSW 5.6 km/h 4.5 km/h 89 % 0 mm
01:39 3.2 °C 1.6 °C 1026.6 hPa North 5.6 km/h 1.8 km/h 89 % 0 mm
01:44 3.2 °C 1.6 °C 1026.6 hPa North 5.6 km/h 4.2 km/h 89 % 0 mm
01:49 3.2 °C 1.6 °C 1026.6 hPa SSW 1.9 km/h 1.3 km/h 89 % 0 mm
01:54 3.3 °C 1.8 °C 1026.6 hPa SSW 13 km/h 6.1 km/h 90 % 0 mm
01:59 3.6 °C 2.1 °C 1026.6 hPa SSW 11.1 km/h 6.9 km/h 90 % 0 mm
02:04 4.4 °C 2.6 °C 1026.6 hPa SSW 13 km/h 9.8 km/h 88 % 0 mm
02:09 5.2 °C 2.7 °C 1026.6 hPa SSW 18.5 km/h 7.2 km/h 84 % 0 mm
02:14 5.6 °C 2.6 °C 1026.6 hPa SSW 14.8 km/h 14.6 km/h 81 % 0 mm
02:19 5.9 °C 2.3 °C 1026.3 hPa SSW 14.8 km/h 6.1 km/h 78 % 0 mm
02:24 5.9 °C 2.2 °C 1026.3 hPa SSW 13 km/h 2.1 km/h 77 % 0 mm
02:29 6 °C 2.1 °C 1026.3 hPa SSW 11.1 km/h 5.1 km/h 76 % 0 mm
02:34 6.1 °C 1.9 °C 1026 hPa SSW 9.3 km/h 4.3 km/h 75 % 0 mm
02:39 6.1 °C 1.9 °C 1026 hPa SSW 9.3 km/h 6.3 km/h 75 % 0 mm
02:44 5.9 °C 2.1 °C 1026 hPa SSW 5.6 km/h 6.3 km/h 76 % 0 mm
02:49 5.6 °C 1.9 °C 1025.6 hPa North 7.4 km/h 2.7 km/h 77 % 0 mm
02:54 5.3 °C 1.8 °C 1025.6 hPa SSW 5.6 km/h 1 km/h 78 % 0 mm
02:59 5 °C 1.8 °C 1025.6 hPa SSW 3.7 km/h 3.4 km/h 80 % 0 mm
03:04 4.8 °C 1.8 °C 1025.6 hPa SSW 5.6 km/h 3.1 km/h 81 % 0 mm
03:09 4.6 °C 1.7 °C 1025.3 hPa SSW 3.7 km/h   82 % 0 mm
03:14 4.4 °C 1.6 °C 1025.6 hPa SSW 3.7 km/h   82 % 0 mm
03:19 4.3 °C 1.7 °C 1025.3 hPa Calm     83 % 0 mm
03:24 4.2 °C 1.6 °C 1025.3 hPa SW 3.7 km/h 1.3 km/h 83 % 0 mm
03:29 4.1 °C 1.7 °C 1024.9 hPa North 1.9 km/h   84 % 0 mm
03:34 3.9 °C 1.5 °C 1024.9 hPa Calm     84 % 0 mm
03:39 3.8 °C 1.3 °C 1024.9 hPa Calm     84 % 0 mm
03:44 3.5 °C 1.2 °C 1024.9 hPa Calm     85 % 0 mm
03:49 3.3 °C 1 °C 1024.9 hPa North 3.7 km/h   85 % 0 mm
03:54 3 °C 0.7 °C 1024.9 hPa Calm     85 % 0 mm
03:59 2.8 °C 0.7 °C 1024.9 hPa Calm     86 % 0 mm
04:04 2.8 °C 0.8 °C 1024.9 hPa SSW 3.2 km/h 0.6 km/h 87 % 0 mm
04:09 2.6 °C 0.7 °C 1024.9 hPa SSW 3.2 km/h 1 km/h 87 % 0 mm
04:14 2.6 °C 0.8 °C 1024.9 hPa North 7.4 km/h 2.9 km/h 88 % 0 mm
04:19 2.6 °C 0.8 °C 1024.9 hPa SSW 1.9 km/h 0.2 km/h 88 % 0 mm
04:24 2.6 °C 0.8 °C 1024.9 hPa North 3.7 km/h 1.1 km/h 88 % 0 mm
04:29 2.7 °C 0.9 °C 1024.9 hPa SSW 5.6 km/h 2.9 km/h 88 % 0 mm
04:34 2.6 °C 0.8 °C 1024.9 hPa SSW 1.9 km/h 0.8 km/h 88 % 0 mm
04:39 2.4 °C 0.8 °C 1024.9 hPa North 3.7 km/h 2.1 km/h 89 % 0 mm
04:44 2.3 °C 0.7 °C 1024.9 hPa North 5.6 km/h 0.5 km/h 89 % 0 mm
04:49 2.2 °C 0.6 °C 1024.9 hPa SSW 1.9 km/h   89 % 0 mm
04:54 2 °C 0.4 °C 1024.9 hPa Calm     89 % 0 mm
04:59 1.9 °C 0.3 °C 1024.9 hPa Calm     89 % 0 mm
05:04 1.9 °C 0.4 °C 1024.6 hPa SSW 5.6 km/h 2.9 km/h 90 % 0 mm
05:09 1.9 °C 0.5 °C 1024.6 hPa North 1.6 km/h 1.9 km/h 90 % 0 mm
05:14 1.8 °C 0.3 °C 1024.6 hPa North 4.8 km/h 2.6 km/h 90 % 0 mm
05:19 1.7 °C 0.3 °C 1024.6 hPa SSW 3.2 km/h 0.6 km/h 90 % 0 mm
05:24 1.7 °C 0.3 °C 1024.6 hPa SW 3.7 km/h 1.6 km/h 90 % 0 mm
05:29 1.9 °C 0.6 °C 1024.6 hPa Calm     91 % 0 mm
05:34 2.2 °C 0.8 °C 1024.6 hPa SSW 1.9 km/h   91 % 0 mm
05:39 2.3 °C 1 °C 1024.6 hPa Calm     91 % 0 mm
05:44 2.4 °C 1.1 °C 1024.6 hPa SSW 3.7 km/h 1.6 km/h 91 % 0 mm
05:49 2.5 °C 1.2 °C 1024.6 hPa SSW 5.6 km/h 2.9 km/h 91 % 0 mm
05:54 2.4 °C 0.9 °C 1024.6 hPa SSW 5.6 km/h 0.2 km/h 90 % 0 mm
05:59 2.2 °C 0.8 °C 1024.6 hPa Calm     90 % 0 mm
06:04 2.2 °C 0.7 °C 1024.3 hPa Calm     90 % 0 mm
06:09 2 °C 0.6 °C 1024.6 hPa SSW 3.7 km/h 1.4 km/h 90 % 0 mm
06:14 1.9 °C 0.5 °C 1024.6 hPa SSW 4.8 km/h 3.4 km/h 90 % 0 mm
06:19 1.8 °C 0.3 °C 1024.6 hPa SSW 4.8 km/h 3.5 km/h 90 % 0 mm
06:24 1.6 °C 0.2 °C 1024.6 hPa Calm     90 % 0 mm
06:29 1.6 °C 0.2 °C 1024.6 hPa SSW 1.9 km/h   91 % 0 mm
06:34 1.7 °C 0.4 °C 1024.9 hPa North 5.6 km/h 0.6 km/h 91 % 0 mm
06:39 2 °C 0.8 °C 1024.9 hPa Calm   0.6 km/h 92 % 0 mm
06:44 2.4 °C 1.4 °C 1024.9 hPa SSW 6.4 km/h 6 km/h 93 % 0 mm
06:49 3.5 °C 2.5 °C 1024.9 hPa SSW 8 km/h 6.4 km/h 93 % 0 mm
06:54 4.2 °C 2.7 °C 1024.9 hPa SSW 6.4 km/h 5.8 km/h 90 % 0 mm
06:59 4.8 °C 2.8 °C 1024.9 hPa SSW 7.4 km/h 4.3 km/h 87 % 0 mm
07:04 5.3 °C 2.8 °C 1024.9 hPa SW 11.3 km/h 9 km/h 84 % 0 mm
07:09 5.6 °C 2.6 °C 1024.9 hPa SSW 11.1 km/h 7.6 km/h 81 % 0 mm
07:14 5.7 °C 2.6 °C 1024.9 hPa SSW 5.6 km/h 2.6 km/h 80 % 0 mm
07:19 5.7 °C 2.4 °C 1024.9 hPa SSW 8 km/h 7.2 km/h 79 % 0 mm
07:24 5.8 °C 2.4 °C 1024.9 hPa SSW 9.3 km/h 6 km/h 79 % 0 mm
07:29 5.8 °C 2.3 °C 1025.3 hPa SSW 11.1 km/h 6.4 km/h 78 % 0 mm
07:34 5.9 °C 2.3 °C 1025.3 hPa SSW 7.4 km/h 3.5 km/h 78 % 0 mm
07:39 5.9 °C 2.2 °C 1025.3 hPa SSW 5.6 km/h 5.6 km/h 77 % 0 mm
07:44 6 °C 2.4 °C 1025.3 hPa SSW 5.6 km/h 2.4 km/h 78 % 0 mm
07:49 6 °C 2.3 °C 1025.3 hPa SSW 9.3 km/h 5.8 km/h 77 % 0 mm
07:54 6.1 °C 2.4 °C 1025.3 hPa SSW 5.6 km/h 0.5 km/h 77 % 0 mm
07:59 6.2 °C 2.3 °C 1024.9 hPa SSW 7.4 km/h 2.1 km/h 76 % 0 mm
08:04 6.3 °C 2.3 °C 1024.9 hPa SSW 3.7 km/h   76 % 0 mm
08:09 6.4 °C 2.4 °C 1024.9 hPa SSW 11.1 km/h 6 km/h 76 % 0 mm
08:14 6.4 °C 2.5 °C 1024.9 hPa SSW 5.6 km/h 4.5 km/h 76 % 0 mm
08:19 6.6 °C 2.6 °C 1024.9 hPa SSW 1.9 km/h 1.9 km/h 76 % 0 mm
08:24 6.7 °C 2.7 °C 1024.9 hPa SSW 12.9 km/h 5 km/h 76 % 0 mm
08:29 6.7 °C 2.6 °C 1024.9 hPa SSW 7.4 km/h 4.2 km/h 75 % 0 mm
08:34 6.7 °C 2.4 °C 1024.9 hPa SSW 13 km/h 6.4 km/h 74 % 0 mm
08:39 6.8 °C 2.4 °C 1024.9 hPa SSW 16.7 km/h 9.8 km/h 74 % 0 mm
08:44 6.8 °C 2.5 °C 1025.3 hPa SW 14.5 km/h 5.6 km/h 74 % 0 mm
08:49 6.9 °C 2.6 °C 1025.3 hPa WSW 12.9 km/h 7.6 km/h 74 % 0 mm
08:54 6.8 °C 2.5 °C 1025.3 hPa WSW 13 km/h 10.3 km/h 74 % 0 mm
08:59 6.7 °C 2.4 °C 1024.9 hPa WSW 13 km/h 7.9 km/h 74 % 0 mm
09:04 6.6 °C 2.3 °C 1024.9 hPa North 11.1 km/h 9.8 km/h 74 % 0 mm
09:09 6.7 °C 2.6 °C 1024.9 hPa WSW 9.3 km/h 6.8 km/h 75 % 0 mm
09:14 7 °C 2.9 °C 1024.9 hPa WSW 7.4 km/h 6.3 km/h 75 % 0 mm
09:19 7.2 °C 2.5 °C 1024.9 hPa WSW 11.1 km/h 6.4 km/h 72 % 0 mm
09:24 7.5 °C 2.8 °C 1024.9 hPa WSW 6.4 km/h 5.6 km/h 72 % 0 mm
09:29 7.8 °C 3.1 °C 1024.9 hPa WSW 8 km/h 7.7 km/h 72 % 0 mm
09:34 8.1 °C 3.1 °C 1024.9 hPa WSW 9.3 km/h 6 km/h 71 % 0 mm
09:39 8.3 °C 3.1 °C 1024.9 hPa WSW 9.3 km/h 6.4 km/h 70 % 0 mm
09:44 8.4 °C 3.1 °C 1024.6 hPa WSW 9.3 km/h 2.7 km/h 69 % 0 mm
09:49 8.7 °C 3.3 °C 1024.6 hPa West 8 km/h 7.9 km/h 69 % 0 mm
09:54 8.7 °C 3.6 °C 1024.6 hPa West 9.3 km/h 5.6 km/h 70 % 0 mm
09:59 9 °C 3.4 °C 1024.6 hPa West 13 km/h 9.7 km/h 68 % 0 mm
10:04 8.6 °C 2.8 °C 1024.6 hPa NW 16.7 km/h 10.5 km/h 67 % 0 mm
10:09 8.3 °C 2.8 °C 1024.6 hPa NW 9.3 km/h 6.3 km/h 68 % 0 mm
10:14 8.1 °C 2.8 °C 1024.6 hPa NW 7.4 km/h 3.7 km/h 69 % 0 mm
10:19 8.1 °C 2.9 °C 1024.6 hPa NW 7.4 km/h 5.3 km/h 70 % 0 mm
10:24 8.1 °C 2.9 °C 1024.3 hPa NW 7.4 km/h 7.4 km/h 70 % 0 mm
10:29 8.2 °C 3 °C 1024.3 hPa NW 7.4 km/h 5.8 km/h 70 % 0 mm
10:34 8.2 °C 3.1 °C 1024.3 hPa NW 7.4 km/h 8.7 km/h 70 % 0 mm
10:39 8.3 °C 3.4 °C 1024.3 hPa NW 5.6 km/h 2.7 km/h 71 % 0 mm
10:44 8.4 °C 3 °C 1024.3 hPa NW 11.1 km/h 8.4 km/h 69 % 0 mm
10:49 8.4 °C 3.3 °C 1024.3 hPa North 16.7 km/h 14.3 km/h 70 % 0 mm
10:54 8.5 °C 3.6 °C 1023.9 hPa WNW 11.1 km/h 7.4 km/h 71 % 0 mm
10:59 8.6 °C 3.7 °C 1023.9 hPa WNW 14.8 km/h 3.9 km/h 71 % 0 mm
11:04 8.9 °C 3.7 °C 1023.9 hPa WNW 14.8 km/h 6.8 km/h 70 % 0 mm
11:09 8.9 °C 3.5 °C 1023.9 hPa NW 13 km/h 7.9 km/h 69 % 0 mm
11:14 8.8 °C 3.4 °C 1023.9 hPa North 13 km/h 10 km/h 69 % 0 mm
11:19 8.9 °C 3.8 °C 1023.9 hPa NW 14.8 km/h 9 km/h 70 % 0 mm
11:24 8.8 °C 3.4 °C 1023.9 hPa NW 14.8 km/h 10.6 km/h 69 % 0 mm
11:29 8.8 °C 3.8 °C 1023.9 hPa NW 11.1 km/h 8.5 km/h 71 % 0 mm
11:34 8.9 °C 3.9 °C 1023.6 hPa North 6.4 km/h 4.2 km/h 71 % 0 mm
11:39 9.1 °C 4.1 °C 1023.6 hPa NW 6.4 km/h 4.3 km/h 71 % 0 mm
11:44 9.2 °C 4.2 °C 1023.6 hPa NW 11.3 km/h 7.6 km/h 71 % 0 mm
11:49 9.2 °C 4.2 °C 1023.6 hPa North 8 km/h 5.6 km/h 71 % 0 mm
11:54 9.2 °C 4 °C 1023.6 hPa WNW 14.5 km/h 9 km/h 70 % 0 mm
11:59 9.2 °C 4.1 °C 1023.2 hPa WNW 14.8 km/h 10.9 km/h 70 % 0 mm
12:04 9.3 °C 4.3 °C 1023.2 hPa WNW 9.3 km/h 7.7 km/h 71 % 0 mm
12:09 9.3 °C 4.1 °C 1023.2 hPa WNW 8 km/h 7.2 km/h 70 % 0 mm
12:14 9.2 °C 4 °C 1022.9 hPa WNW 7.4 km/h 6 km/h 70 % 0 mm
12:19 9.1 °C 3.9 °C 1022.9 hPa WNW 5.6 km/h 0.8 km/h 70 % 0 mm
12:24 9.2 °C 4.1 °C 1022.6 hPa WNW 3.7 km/h 3.1 km/h 70 % 0 mm
12:29 9.3 °C 4.3 °C 1022.6 hPa WNW 3.7 km/h 0.2 km/h 71 % 0 mm
12:34 9.5 °C 4.3 °C 1022.6 hPa WNW 5.6 km/h 1.6 km/h 70 % 0 mm
12:39 9.7 °C 4.4 °C 1022.6 hPa WNW 3.2 km/h 5.1 km/h 70 % 0 mm
12:44 9.8 °C 4.6 °C 1022.2 hPa North 7.4 km/h 6.3 km/h 70 % 0 mm
12:49 9.8 °C 4.8 °C 1022.2 hPa WNW 7.4 km/h 3.7 km/h 71 % 0 mm
12:54 9.8 °C 4.8 °C 1021.9 hPa North 7.4 km/h 2.9 km/h 71 % 0 mm
12:59 9.9 °C 4.9 °C 1021.9 hPa WNW 3.7 km/h 1.6 km/h 71 % 0 mm
13:04 9.9 °C 4.7 °C 1021.9 hPa WNW 5.6 km/h 2.6 km/h 70 % 0 mm
13:09 9.9 °C 4.9 °C 1021.9 hPa North 7.4 km/h 6.3 km/h 71 % 0 mm
13:14 9.9 °C 4.9 °C 1021.9 hPa NW 13 km/h 9.8 km/h 71 % 0 mm
13:19 9.9 °C 5.1 °C 1021.6 hPa WNW 11.1 km/h 7.4 km/h 72 % 0 mm
13:24 9.9 °C 5.3 °C 1021.6 hPa North 22.5 km/h 16.1 km/h 73 % 0 mm
13:29 9.9 °C 5.1 °C 1021.6 hPa WNW 18.5 km/h 12.9 km/h 72 % 0 mm
13:34 9.9 °C 5.3 °C 1021.6 hPa WNW 11.3 km/h 10 km/h 73 % 0 mm
13:39 9.8 °C 5.2 °C 1021.6 hPa WNW 18.5 km/h 12.4 km/h 73 % 0 mm
13:44 9.7 °C 5.3 °C 1021.2 hPa WNW 14.8 km/h 10.1 km/h 74 % 0 mm
13:49 9.7 °C 5.3 °C 1021.2 hPa North 14.8 km/h 10.8 km/h 74 % 0 mm
13:54 9.6 °C 5.6 °C 1021.2 hPa WNW 13 km/h 7.9 km/h 76 % 0 mm
13:59 9.6 °C 5.8 °C 1021.6 hPa WNW 9.3 km/h 5.5 km/h 77 % 0 mm
14:04 9.4 °C 5.9 °C 1021.2 hPa WNW 7.4 km/h 6 km/h 79 % 0 mm
14:09 9 °C 6.3 °C 1021.2 hPa WNW 13 km/h 8.2 km/h 83 % 0.2 mm
14:14 8.9 °C 6.5 °C 1021.2 hPa West 14.5 km/h 10.5 km/h 85 % 0.2 mm
14:19 8.9 °C 6.7 °C 1021.2 hPa West 13 km/h 8.5 km/h 86 % 0.2 mm
14:24 9.2 °C 7.3 °C 1021.2 hPa West 9.7 km/h 8.5 km/h 88 % 0.2 mm
14:29 9.3 °C 7.1 °C 1021.2 hPa West 13 km/h 8.5 km/h 86 % 0.2 mm
14:34 9.4 °C 6.9 °C 1020.9 hPa West 12.9 km/h 10.6 km/h 84 % 0.2 mm
14:39 9.8 °C 7 °C 1020.9 hPa West 11.3 km/h 5.6 km/h 83 % 0.2 mm
14:44 10.1 °C 6.8 °C 1020.9 hPa West 13 km/h 11.1 km/h 80 % 0.2 mm
14:49 10.4 °C 6.9 °C 1020.5 hPa WNW 16.7 km/h 14.2 km/h 79 % 0.2 mm
14:54 10.3 °C 6.7 °C 1020.5 hPa WNW 11.1 km/h 10.9 km/h 78 % 0.2 mm
14:59 10.2 °C 6.7 °C 1020.5 hPa WNW 16.7 km/h 9.2 km/h 79 % 0.2 mm
15:04 9.9 °C 7.1 °C 1020.5 hPa West 13 km/h 12.7 km/h 83 % 0.2 mm
15:09 9.7 °C 6.7 °C 1020.5 hPa North 9.3 km/h 8.9 km/h 82 % 0.2 mm
15:14 9.4 °C 6.7 °C 1020.5 hPa West 13 km/h 9.3 km/h 83 % 0.2 mm
15:19 9.3 °C 6.6 °C 1020.2 hPa West 16.7 km/h 11.6 km/h 83 % 0.2 mm
15:24 9.2 °C 6.7 °C 1020.2 hPa West 14.8 km/h 12.7 km/h 84 % 0.2 mm
15:29 9.3 °C 6.7 °C 1019.9 hPa WNW 13 km/h 5 km/h 84 % 0.2 mm
15:34 9.5 °C 7.1 °C 1019.9 hPa WNW 9.3 km/h 8 km/h 85 % 0.2 mm
15:39 9.8 °C 7.4 °C 1020.2 hPa WNW 11.3 km/h 9.8 km/h 85 % 0.2 mm
15:44 10.1 °C 7.5 °C 1020.2 hPa WNW 11.1 km/h 8.5 km/h 84 % 0.2 mm
15:49 10.2 °C 7.4 °C 1020.2 hPa WNW 9.3 km/h 5 km/h 83 % 0.2 mm
15:54 10.2 °C 7.1 °C 1020.2 hPa WNW 9.3 km/h 6.6 km/h 81 % 0.2 mm
15:59 9.9 °C 6.9 °C 1020.2 hPa WNW 11.3 km/h 8 km/h 82 % 0.2 mm
16:04 9.7 °C 6.4 °C 1020.2 hPa WNW 13 km/h 8.4 km/h 80 % 0.2 mm
16:09 9.7 °C 6.4 °C 1020.2 hPa West 17.7 km/h 13.5 km/h 80 % 0 mm
16:14 9.4 °C 6.3 °C 1020.2 hPa North 18.5 km/h 14.3 km/h 81 % 0 mm
16:19 9.1 °C 6.2 °C 1020.2 hPa West 16.7 km/h 10.9 km/h 82 % 0 mm
16:24 9.1 °C 6.3 °C 1020.2 hPa West 11.1 km/h 8.7 km/h 83 % 0 mm
16:29 8.9 °C 6.4 °C 1020.2 hPa West 7.4 km/h 6.9 km/h 84 % 0 mm
16:34 8.8 °C 6.4 °C 1020.2 hPa West 9.7 km/h 7.6 km/h 85 % 0 mm
16:39 8.8 °C 6.4 °C 1020.2 hPa West 18.5 km/h 9.7 km/h 85 % 0 mm
16:44 8.8 °C 6.6 °C 1020.2 hPa West 16.7 km/h 10.3 km/h 86 % 0 mm
16:49 8.7 °C 6.9 °C 1019.9 hPa North 11.1 km/h 6.9 km/h 89 % 0 mm
16:54 8.7 °C 6.5 °C 1019.9 hPa North 9.3 km/h 6.8 km/h 86 % 0 mm
16:59 8.7 °C 6.5 °C 1019.9 hPa West 5.6 km/h 5.5 km/h 86 % 0 mm
17:04 8.6 °C 6.2 °C 1019.9 hPa West 5.6 km/h 6.1 km/h 85 % 0 mm
17:09 8.5 °C 6.1 °C 1019.9 hPa West 9.7 km/h 4.5 km/h 85 % 0 mm
17:14 8.6 °C 6.1 °C 1019.9 hPa North 11.1 km/h 5.8 km/h 84 % 0 mm
17:19 8.6 °C 6 °C 1019.9 hPa West 9.3 km/h 6 km/h 84 % 0 mm
17:24 8.6 °C 6 °C 1019.9 hPa West 11.1 km/h 7.7 km/h 84 % 0 mm
17:29 8.5 °C 5.9 °C 1020.2 hPa West 7.4 km/h 6.1 km/h 84 % 0 mm
17:34 8.6 °C 6 °C 1020.2 hPa West 9.3 km/h 6 km/h 84 % 0 mm
17:39 8.6 °C 6 °C 1020.2 hPa North 9.3 km/h 4.5 km/h 84 % 0 mm
17:44 8.6 °C 6.1 °C 1020.2 hPa West 5.6 km/h 5 km/h 84 % 0 mm
17:49 8.6 °C 6.1 °C 1020.2 hPa West 5.6 km/h 4.2 km/h 84 % 0 mm
17:54 8.6 °C 6.1 °C 1020.2 hPa West 9.3 km/h 7.1 km/h 84 % 0 mm
17:59 8.6 °C 6.1 °C 1020.2 hPa West 16.7 km/h 9.3 km/h 84 % 0.2 mm
18:04 8.5 °C 5.9 °C 1020.2 hPa West 7.4 km/h 5.1 km/h 84 % 0.2 mm
18:09 8.4 °C 6.1 °C 1020.2 hPa North 7.4 km/h 6.3 km/h 85 % 0.2 mm
18:14 8.3 °C 5.9 °C 1019.9 hPa West 6.4 km/h 5.8 km/h 85 % 0.2 mm
18:19 8.2 °C 5.8 °C 1020.2 hPa West 9.3 km/h 6.3 km/h 85 % 0.2 mm
18:24 8 °C 5.4 °C 1020.2 hPa West 7.4 km/h 5.8 km/h 84 % 0.2 mm
18:29 7.9 °C 5.3 °C 1020.2 hPa West 5.6 km/h 0.8 km/h 84 % 0.2 mm
18:34 7.8 °C 5.2 °C 1020.2 hPa West 5.6 km/h 3.9 km/h 84 % 0.2 mm
18:39 7.7 °C 5.1 °C 1020.2 hPa West 5.6 km/h 2.6 km/h 84 % 0.2 mm
18:44 7.5 °C 4.9 °C 1020.2 hPa West 3.7 km/h 2.9 km/h 84 % 0.2 mm
18:49 7.4 °C 4.8 °C 1020.2 hPa West 3.7 km/h 0.3 km/h 84 % 0.2 mm
18:54 7.4 °C 4.8 °C 1020.2 hPa West 1.9 km/h 0.5 km/h 84 % 0.2 mm
18:59 7.2 °C 4.7 °C 1020.2 hPa Calm     84 % 0 mm
19:04 7.1 °C 4.7 °C 1020.2 hPa North 3.2 km/h 1.1 km/h 85 % 0 mm
19:09 6.9 °C 4.6 °C 1020.2 hPa Calm     85 % 0 mm
19:14 6.8 °C 4.4 °C 1020.2 hPa West 1.9 km/h 1.8 km/h 85 % 0 mm
19:19 6.6 °C 4.3 °C 1019.9 hPa West 3.7 km/h   85 % 0 mm
19:24 6.6 °C 4.4 °C 1019.9 hPa West 3.7 km/h 1.8 km/h 86 % 0 mm
19:29 6.6 °C 4.4 °C 1019.9 hPa West 3.7 km/h 1 km/h 86 % 0 mm
19:34 6.6 °C 4.4 °C 1019.9 hPa West 7.4 km/h 6.4 km/h 86 % 0 mm
19:39 6.6 °C 4.4 °C 1019.9 hPa North 5.6 km/h 3.9 km/h 86 % 0 mm
19:44 6.6 °C 4.4 °C 1019.9 hPa West 5.6 km/h 3.4 km/h 86 % 0 mm
19:49 6.7 °C 4.5 °C 1019.9 hPa West 3.7 km/h 2.1 km/h 86 % 0 mm
19:54 6.7 °C 4.5 °C 1019.9 hPa West 5.6 km/h 1.1 km/h 86 % 0 mm
19:59 6.7 °C 4.7 °C 1019.9 hPa West 5.6 km/h 4 km/h 87 % 0 mm
20:04 6.8 °C 4.8 °C 1019.9 hPa West 8 km/h 6 km/h 87 % 0 mm
20:09 6.8 °C 4.8 °C 1019.5 hPa West 6.4 km/h 3.5 km/h 87 % 0 mm
20:14 7.1 °C 5.1 °C 1019.9 hPa West 6.4 km/h 5.8 km/h 87 % 0 mm
20:19 7.3 °C 4.9 °C 1019.9 hPa West 8 km/h 5.8 km/h 85 % 0 mm
20:24 7.4 °C 5.1 °C 1019.5 hPa West 5.6 km/h 3.2 km/h 85 % 0 mm
20:29 7.4 °C 4.9 °C 1019.5 hPa West 5.6 km/h 3.7 km/h 84 % 0 mm
20:34 7.4 °C 4.8 °C 1019.5 hPa West 5.6 km/h 4.3 km/h 84 % 0 mm
20:39 7.4 °C 4.7 °C 1019.5 hPa West 5.6 km/h 3.7 km/h 83 % 0 mm
20:44 7.3 °C 4.6 °C 1019.5 hPa West 3.7 km/h 1.9 km/h 83 % 0 mm
20:49 7.2 °C 4.4 °C 1019.5 hPa West 3.7 km/h 1.1 km/h 83 % 0 mm
20:54 7.2 °C 4.4 °C 1019.5 hPa West 9.7 km/h 4.7 km/h 83 % 0 mm
20:59 7.3 °C 4.6 °C 1019.5 hPa West 7.4 km/h 6.8 km/h 83 % 0 mm
21:04 7.4 °C 4.5 °C 1019.5 hPa West 11.3 km/h 6 km/h 82 % 0 mm
21:09 7.6 °C 4.7 °C 1019.5 hPa WNW 16.7 km/h 9.2 km/h 82 % 0 mm
21:14 7.7 °C 4.6 °C 1019.5 hPa North 13 km/h 5.6 km/h 81 % 0 mm
21:19 7.7 °C 4.7 °C 1019.5 hPa WNW 12.9 km/h 8.5 km/h 81 % 0 mm
21:24 7.7 °C 4.7 °C 1019.5 hPa WNW 14.8 km/h 9.7 km/h 81 % 0 mm
21:29 7.8 °C 4.7 °C 1019.2 hPa WNW 11.1 km/h 5 km/h 81 % 0 mm
21:34 7.8 °C 4.7 °C 1019.2 hPa NW 11.1 km/h 6.4 km/h 81 % 0 mm
21:39 7.7 °C 4.7 °C 1019.5 hPa WNW 11.3 km/h 10.9 km/h 81 % 0 mm
21:44 7.7 °C 4.8 °C 1019.5 hPa WNW 9.7 km/h 6.6 km/h 82 % 0 mm
21:49 7.8 °C 4.9 °C 1019.5 hPa WNW 9.7 km/h 6.1 km/h 82 % 0 mm
21:54 7.8 °C 4.9 °C 1019.5 hPa WNW 9.7 km/h 6.3 km/h 82 % 0 mm
21:59 7.8 °C 4.9 °C 1019.5 hPa North 7.4 km/h 5.8 km/h 82 % 0 mm
22:04 7.7 °C 5 °C 1019.5 hPa WNW 11.1 km/h 10 km/h 83 % 0 mm
22:09 7.8 °C 5.1 °C 1019.5 hPa WNW 9.3 km/h 6.1 km/h 83 % 0 mm
22:14 7.9 °C 5.2 °C 1019.5 hPa WNW 11.1 km/h 8 km/h 83 % 0 mm
22:19 8 °C 5.3 °C 1019.5 hPa WNW 16.7 km/h 8.2 km/h 83 % 0 mm
22:24 8.1 °C 5.4 °C 1019.5 hPa WNW 11.3 km/h 8.5 km/h 83 % 0 mm
22:29 8.2 °C 5.5 °C 1019.5 hPa North 11.3 km/h 9.5 km/h 83 % 0 mm
22:34 8.3 °C 5.6 °C 1019.2 hPa North 14.8 km/h 9.3 km/h 83 % 0 mm
22:39 8.3 °C 5.4 °C 1019.2 hPa WNW 14.8 km/h 9 km/h 82 % 0 mm
22:44 8.4 °C 5.7 °C 1019.2 hPa WNW 18.5 km/h 10.5 km/h 83 % 0 mm
22:49 8.4 °C 5.7 °C 1019.2 hPa WNW 18.5 km/h 12.6 km/h 83 % 0 mm
22:54 8.4 °C 5.7 °C 1019.2 hPa WNW 13 km/h 11.4 km/h 83 % 0 mm
22:59 8.4 °C 5.7 °C 1018.8 hPa WNW 20.4 km/h 13 km/h 83 % 0 mm
23:04 8.4 °C 5.7 °C 1018.8 hPa WNW 18.5 km/h 14.2 km/h 83 % 0 mm
23:09 8.5 °C 5.8 °C 1018.8 hPa WNW 18.5 km/h 14.8 km/h 83 % 0 mm
23:14 8.6 °C 5.7 °C 1018.8 hPa WNW 14.8 km/h 10.5 km/h 82 % 0 mm
23:19 8.6 °C 5.7 °C 1018.8 hPa WNW 12.9 km/h 12.4 km/h 82 % 0 mm
23:24 8.5 °C 5.6 °C 1018.8 hPa WNW 8 km/h 6.1 km/h 82 % 0 mm
23:29 8.5 °C 5.6 °C 1018.8 hPa WNW 11.1 km/h 6.1 km/h 82 % 0 mm
23:34 8.5 °C 5.8 °C 1018.8 hPa WNW 11.1 km/h 9.2 km/h 83 % 0 mm
23:39 8.5 °C 5.8 °C 1018.8 hPa North 14.8 km/h 6.4 km/h 83 % 0 mm
23:44 8.4 °C 5.7 °C 1018.8 hPa WNW 9.3 km/h 5 km/h 83 % 0 mm
23:49 8.4 °C 5.7 °C 1018.8 hPa WNW 7.4 km/h 5.1 km/h 83 % 0 mm
23:54 8.4 °C 5.7 °C 1018.5 hPa WNW 8 km/h 6 km/h 83 % 0 mm
23:59 8.4 °C 5.7 °C 1018.5 hPa WNW 16.7 km/h 11.9 km/h 83 % 0 mm
Ararat Weather
Compliments of Weather Underground - 2.25 mb
Click here to send mail.


ABOUT

Live weather data from Ararat, Victoria, Australia, 3377
Data uploaded from Cumulus every 5 minutes to Weather Underground.
This site then downloads the raw data for formatting and display.
Metric and imperial data can be displayed. Graphs and historical data available.
Includes Sun and Moon times and rain image live from BOM.

Check out Ararat Weather on Facebook, Twitter and Google +

Help support ongoing costs by checking out the ads





Follow @AraratWeather